createdAt,value
2017-01-24T00:00:12.249Z,47.90
2017-01-24T00:01:12.510Z,48.00
2017-01-24T00:02:11.490Z,47.90
2017-01-24T00:03:11.507Z,48.00
2017-01-24T00:04:11.529Z,47.90
2017-01-24T00:05:11.667Z,48.00
2017-01-24T00:06:11.711Z,47.90
2017-01-24T00:07:12.712Z,48.00
2017-01-24T00:08:13.214Z,48.00
2017-01-24T00:09:13.781Z,48.00
2017-01-24T00:10:12.335Z,48.00
2017-01-24T00:11:09.529Z,is
2017-01-24T00:12:10.508Z,is
2017-01-24T00:13:12.619Z,48.00
2017-01-24T00:14:11.642Z,48.00
2017-01-24T00:15:11.711Z,48.00
2017-01-24T00:16:12.258Z,48.00
2017-01-24T00:17:13.257Z,48.10
2017-01-24T00:18:13.315Z,48.00
2017-01-24T00:19:12.339Z,48.00
2017-01-24T00:20:13.468Z,48.00
2017-01-24T00:21:12.219Z,48.00
2017-01-24T00:22:13.350Z,48.00
2017-01-24T00:23:12.928Z,48.10
2017-01-24T00:24:12.039Z,48.00
2017-01-24T00:25:12.681Z,48.00
2017-01-24T00:26:11.758Z,48.10
2017-01-24T00:27:10.691Z,is
2017-01-24T00:28:11.823Z,48.30
2017-01-24T00:29:12.281Z,48.20
2017-01-24T00:30:12.745Z,48.10
2017-01-24T00:31:11.908Z,48.10
2017-01-24T00:32:13.573Z,48.20
2017-01-24T00:33:12.136Z,48.10
2017-01-24T00:34:12.089Z,48.10
2017-01-24T00:35:12.063Z,48.10
2017-01-24T00:36:12.768Z,48.00
2017-01-24T00:37:11.835Z,48.10
2017-01-24T00:38:12.378Z,48.10
2017-01-24T00:39:12.900Z,48.00
2017-01-24T00:40:14.604Z,48.10
2017-01-24T00:41:11.685Z,48.10
2017-01-24T00:42:12.485Z,48.20
2017-01-24T00:43:12.064Z,48.10
2017-01-24T00:44:12.746Z,48.10
2017-01-24T00:45:10.436Z,is
2017-01-24T00:46:10.491Z,is
2017-01-24T00:47:12.286Z,48.20
2017-01-24T00:48:13.908Z,48.00
2017-01-24T00:49:12.768Z,48.00
2017-01-24T00:50:09.854Z,is
2017-01-24T00:51:12.076Z,48.20
2017-01-24T00:52:12.103Z,48.00
2017-01-24T00:53:12.736Z,48.10
2017-01-24T00:54:11.927Z,48.00
2017-01-24T00:55:10.536Z,is
2017-01-24T00:56:12.392Z,48.10
2017-01-24T00:57:13.011Z,48.10
2017-01-24T00:58:12.517Z,48.00
2017-01-24T00:59:11.961Z,48.00
2017-01-24T01:00:12.625Z,48.10
2017-01-24T01:01:13.475Z,48.10
2017-01-24T01:02:13.011Z,48.00
2017-01-24T01:03:12.199Z,48.00
2017-01-24T01:04:13.596Z,48.00
2017-01-24T01:05:12.128Z,48.10
2017-01-24T01:06:15.050Z,48.00
2017-01-24T01:07:14.906Z,47.90
2017-01-24T01:08:11.848Z,47.90
2017-01-24T01:09:12.338Z,47.80
2017-01-24T01:10:12.973Z,47.80
2017-01-24T01:11:14.357Z,47.80
2017-01-24T01:12:13.924Z,47.90
2017-01-24T01:13:13.727Z,47.80
2017-01-24T01:14:15.714Z,47.80
2017-01-24T01:15:13.863Z,47.80
2017-01-24T01:16:14.369Z,47.90
2017-01-24T01:17:13.863Z,47.80
2017-01-24T01:18:15.176Z,47.80
2017-01-24T01:19:11.585Z,47.70
2017-01-24T01:20:12.726Z,47.90
2017-01-24T01:21:11.879Z,47.80
2017-01-24T01:22:14.749Z,47.80
2017-01-24T01:23:12.471Z,47.80
2017-01-24T01:24:11.521Z,47.30
2017-01-24T01:25:14.478Z,47.80
2017-01-24T01:26:14.006Z,47.80
2017-01-24T01:27:12.608Z,47.90
2017-01-24T01:28:12.268Z,47.90
2017-01-24T01:29:13.297Z,47.80
2017-01-24T01:30:10.585Z,is
2017-01-24T01:31:12.421Z,47.80
2017-01-24T01:32:12.176Z,47.80
2017-01-24T01:33:13.009Z,47.90
2017-01-24T01:34:14.161Z,47.90
2017-01-24T01:35:13.158Z,47.80
2017-01-24T01:36:12.778Z,47.70
2017-01-24T01:37:12.504Z,47.80
2017-01-24T01:38:11.897Z,47.80
2017-01-24T01:39:11.910Z,47.80
2017-01-24T01:40:15.739Z,47.80
2017-01-24T01:41:13.055Z,47.80
2017-01-24T01:42:12.604Z,47.70
2017-01-24T01:43:12.338Z,47.80
2017-01-24T01:44:12.339Z,47.80
2017-01-24T01:45:12.442Z,47.80
2017-01-24T01:46:12.088Z,47.80
2017-01-24T01:47:12.223Z,47.80
2017-01-24T01:48:12.444Z,48.00
2017-01-24T01:49:11.430Z,48.00
2017-01-24T01:50:11.902Z,48.00
2017-01-24T01:51:12.469Z,47.90
2017-01-24T01:52:12.855Z,48.10
2017-01-24T01:53:12.586Z,48.20
2017-01-24T01:54:12.813Z,48.10
2017-01-24T01:55:11.999Z,48.00
2017-01-24T01:56:12.515Z,48.10
2017-01-24T01:57:12.123Z,48.00
2017-01-24T01:58:13.419Z,48.10
2017-01-24T01:59:12.058Z,48.00
2017-01-24T02:00:13.824Z,48.10
2017-01-24T02:01:12.438Z,48.00
2017-01-24T02:02:11.516Z,48.00
2017-01-24T02:03:12.131Z,48.00
2017-01-24T02:04:12.557Z,48.00
2017-01-24T02:05:11.564Z,48.10
2017-01-24T02:06:09.213Z,is
2017-01-24T02:07:13.138Z,48.10
2017-01-24T02:08:12.250Z,48.10
2017-01-24T02:09:14.248Z,48.00
2017-01-24T02:10:12.847Z,48.20
2017-01-24T02:11:12.355Z,48.10
2017-01-24T02:12:12.941Z,48.00
2017-01-24T02:13:12.524Z,48.20
2017-01-24T02:14:12.566Z,48.10
2017-01-24T02:15:10.332Z,is
2017-01-24T02:16:12.428Z,48.00
2017-01-24T02:17:12.433Z,48.00
2017-01-24T02:18:12.241Z,48.10
2017-01-24T02:19:13.851Z,48.00
2017-01-24T02:20:12.740Z,48.00
2017-01-24T02:21:13.585Z,48.00
2017-01-24T02:22:12.486Z,48.00
2017-01-24T02:23:12.703Z,48.00
2017-01-24T02:24:11.745Z,48.00
2017-01-24T02:25:14.284Z,47.90
2017-01-24T02:26:13.991Z,47.90
2017-01-24T02:27:12.577Z,47.90
2017-01-24T02:28:11.752Z,48.00
2017-01-24T02:29:11.798Z,47.90
2017-01-24T02:30:12.356Z,48.00
2017-01-24T02:31:11.446Z,47.90
2017-01-24T02:32:12.163Z,47.90
2017-01-24T02:33:13.676Z,47.90
2017-01-24T02:34:13.455Z,48.00
2017-01-24T02:35:11.515Z,47.90
2017-01-24T02:36:12.568Z,48.00
2017-01-24T02:37:11.636Z,47.90
2017-01-24T02:38:11.642Z,47.90
2017-01-24T02:39:12.984Z,48.00
2017-01-24T02:40:12.673Z,47.90
2017-01-24T02:41:12.426Z,48.00
2017-01-24T02:42:13.207Z,48.10
2017-01-24T02:43:12.134Z,48.00
2017-01-24T02:44:12.223Z,47.90
2017-01-24T02:45:12.891Z,47.90
2017-01-24T02:46:12.496Z,47.90
2017-01-24T02:47:11.652Z,48.00
2017-01-24T02:48:11.211Z,is
2017-01-24T02:49:12.186Z,48.00
2017-01-24T02:50:13.097Z,48.00
2017-01-24T02:51:13.065Z,48.10
2017-01-24T02:52:10.952Z,is
2017-01-24T02:53:14.871Z,48.10
2017-01-24T02:54:09.093Z,is
2017-01-24T02:55:13.659Z,48.10
2017-01-24T02:56:12.946Z,48.00
2017-01-24T02:57:12.413Z,48.00
2017-01-24T02:58:12.449Z,48.10
2017-01-24T02:59:12.154Z,48.10
2017-01-24T03:00:12.010Z,48.20
2017-01-24T03:01:12.595Z,48.10
2017-01-24T03:02:12.651Z,48.00
2017-01-24T03:03:12.330Z,48.20
2017-01-24T03:04:11.109Z,is
2017-01-24T03:05:11.414Z,48.10
2017-01-24T03:06:12.028Z,48.20
2017-01-24T03:07:09.324Z,is
2017-01-24T03:08:13.046Z,48.10
2017-01-24T03:09:13.647Z,48.00
2017-01-24T03:10:12.334Z,48.10
2017-01-24T03:11:13.983Z,48.10
2017-01-24T03:12:13.882Z,48.10
2017-01-24T03:13:12.610Z,48.10
2017-01-24T03:14:12.312Z,48.20
2017-01-24T03:15:13.166Z,48.20
2017-01-24T03:16:10.740Z,is
2017-01-24T03:17:11.947Z,48.10
2017-01-24T03:18:12.485Z,48.20
2017-01-24T03:19:12.005Z,48.20
2017-01-24T03:20:13.727Z,48.20
2017-01-24T03:21:11.707Z,48.20
2017-01-24T03:22:13.951Z,48.30
2017-01-24T03:23:12.598Z,48.20
2017-01-24T03:24:12.594Z,48.10
2017-01-24T03:25:12.976Z,48.20
2017-01-24T03:26:12.721Z,48.20
2017-01-24T03:27:12.545Z,48.10
2017-01-24T03:28:12.220Z,48.10
2017-01-24T03:29:12.276Z,48.10
2017-01-24T03:30:13.155Z,48.20
2017-01-24T03:31:13.073Z,48.20
2017-01-24T03:32:12.132Z,48.10
2017-01-24T03:33:12.728Z,48.10
2017-01-24T03:34:13.031Z,48.10
2017-01-24T03:35:13.583Z,48.20
2017-01-24T03:36:11.600Z,48.20
2017-01-24T03:37:12.411Z,48.20
2017-01-24T03:38:14.191Z,48.20
2017-01-24T03:39:12.184Z,48.20
2017-01-24T03:40:12.312Z,48.20
2017-01-24T03:41:12.946Z,48.20
2017-01-24T03:42:11.920Z,48.40
2017-01-24T03:43:11.853Z,48.30
2017-01-24T03:44:12.643Z,48.30
2017-01-24T03:45:12.211Z,48.10
2017-01-24T03:46:10.254Z,is
2017-01-24T03:47:12.224Z,48.30
2017-01-24T03:48:12.876Z,48.40
2017-01-24T03:49:12.432Z,48.10
2017-01-24T03:50:10.158Z,is
2017-01-24T03:51:13.204Z,48.30
2017-01-24T03:52:10.241Z,is
2017-01-24T03:53:12.509Z,48.30
2017-01-24T03:54:12.461Z,48.20
2017-01-24T03:55:12.060Z,48.30
2017-01-24T03:56:11.214Z,is
2017-01-24T03:57:13.123Z,48.30
2017-01-24T03:58:12.116Z,48.30
2017-01-24T03:59:11.164Z,is
2017-01-24T04:00:12.017Z,48.20
2017-01-24T04:01:13.614Z,48.30
2017-01-24T04:02:12.919Z,48.20
2017-01-24T04:03:12.042Z,48.30
2017-01-24T04:04:12.072Z,48.20
2017-01-24T04:05:12.657Z,48.20
2017-01-24T04:06:12.386Z,48.20
2017-01-24T04:07:09.169Z,is
2017-01-24T04:08:12.316Z,48.10
2017-01-24T04:09:13.152Z,48.10
2017-01-24T04:10:13.545Z,48.20
2017-01-24T04:11:11.656Z,48.10
2017-01-24T04:12:12.678Z,48.10
2017-01-24T04:13:13.280Z,48.00
2017-01-24T04:14:10.998Z,is
2017-01-24T04:15:12.828Z,48.10
2017-01-24T04:16:12.342Z,48.10
2017-01-24T04:17:12.580Z,47.40
2017-01-24T04:18:10.116Z,is
2017-01-24T04:19:10.213Z,is
2017-01-24T04:20:12.306Z,48.10
2017-01-24T04:21:12.716Z,48.00
2017-01-24T04:22:11.799Z,48.00
2017-01-24T04:23:13.703Z,48.40
2017-01-24T04:24:12.377Z,48.00
2017-01-24T04:25:13.205Z,48.10
2017-01-24T04:26:14.896Z,48.10
2017-01-24T04:27:12.049Z,48.10
2017-01-24T04:28:14.062Z,48.10
2017-01-24T04:29:15.193Z,48.10
2017-01-24T04:30:12.248Z,48.10
2017-01-24T04:31:12.841Z,48.10
2017-01-24T04:32:14.800Z,48.00
2017-01-24T04:33:11.833Z,48.00
2017-01-24T04:34:12.656Z,48.10
2017-01-24T04:35:12.530Z,48.10
2017-01-24T04:36:11.608Z,48.10
2017-01-24T04:37:11.652Z,48.20
2017-01-24T04:38:11.790Z,48.10
2017-01-24T04:39:13.285Z,48.20
2017-01-24T04:40:12.807Z,48.70
2017-01-24T04:41:11.748Z,48.80
2017-01-24T04:42:11.754Z,48.70
2017-01-24T04:43:10.235Z,is
2017-01-24T04:44:12.248Z,48.80
2017-01-24T04:45:12.254Z,48.70
2017-01-24T04:46:13.337Z,48.70
2017-01-24T04:47:10.573Z,is
2017-01-24T04:48:11.833Z,48.70
2017-01-24T04:49:11.992Z,48.60
2017-01-24T04:50:12.843Z,48.60
2017-01-24T04:51:12.039Z,48.60
2017-01-24T04:52:12.045Z,48.60
2017-01-24T04:53:10.644Z,is
2017-01-24T04:54:11.900Z,48.60
2017-01-24T04:55:12.203Z,48.70
2017-01-24T04:56:11.099Z,is
2017-01-24T04:57:12.405Z,48.60
2017-01-24T04:58:11.387Z,48.60
2017-01-24T04:59:14.207Z,48.80
2017-01-24T05:00:12.689Z,48.70
2017-01-24T05:01:12.466Z,48.70
2017-01-24T05:02:12.288Z,48.60
2017-01-24T05:03:12.978Z,48.60
2017-01-24T05:04:12.454Z,48.80
2017-01-24T05:05:13.030Z,48.70
2017-01-24T05:06:12.192Z,48.60
2017-01-24T05:07:13.340Z,48.60
2017-01-24T05:08:12.428Z,48.80
2017-01-24T05:09:11.956Z,48.80
2017-01-24T05:10:11.970Z,48.70
2017-01-24T05:11:11.986Z,48.60
2017-01-24T05:12:13.452Z,48.70
2017-01-24T05:13:12.206Z,48.70
2017-01-24T05:14:13.959Z,48.60
2017-01-24T05:15:11.925Z,48.60
2017-01-24T05:16:12.440Z,48.80
2017-01-24T05:17:12.216Z,48.50
2017-01-24T05:18:13.444Z,48.50
2017-01-24T05:19:10.376Z,is
2017-01-24T05:20:11.599Z,48.50
2017-01-24T05:21:12.682Z,48.40
2017-01-24T05:22:11.883Z,48.40
2017-01-24T05:23:12.824Z,48.40
2017-01-24T05:24:11.740Z,48.40
2017-01-24T05:25:15.757Z,48.80
2017-01-24T05:26:17.506Z,49.40
2017-01-24T05:27:16.087Z,49.10
2017-01-24T05:28:12.589Z,49.00
2017-01-24T05:29:11.633Z,48.90
2017-01-24T05:30:11.638Z,49.20
2017-01-24T05:31:12.594Z,49.10
2017-01-24T05:32:11.762Z,49.10
2017-01-24T05:33:11.676Z,49.20
2017-01-24T05:34:11.497Z,is
2017-01-24T05:35:13.444Z,49.00
2017-01-24T05:36:11.497Z,49.20
2017-01-24T05:37:12.442Z,48.70
2017-01-24T05:38:11.557Z,49.10
2017-01-24T05:39:11.707Z,49.30
2017-01-24T05:40:11.720Z,49.20
2017-01-24T05:41:11.669Z,49.40
2017-01-24T05:42:09.093Z,is
2017-01-24T05:43:12.483Z,49.10
2017-01-24T05:44:12.687Z,49.10
2017-01-24T05:45:12.428Z,49.10
2017-01-24T05:46:11.907Z,48.90
2017-01-24T05:47:13.208Z,49.20
2017-01-24T05:48:12.964Z,49.20
2017-01-24T05:49:10.130Z,is
2017-01-24T05:50:13.281Z,49.00
2017-01-24T05:51:11.512Z,48.70
2017-01-24T05:52:13.259Z,49.00
2017-01-24T05:53:12.332Z,48.70
2017-01-24T05:54:12.427Z,48.90
2017-01-24T05:55:13.194Z,48.80
2017-01-24T05:56:12.248Z,48.70
2017-01-24T05:57:11.212Z,48.60
2017-01-24T05:58:13.664Z,48.80
2017-01-24T05:59:11.544Z,48.70
2017-01-24T06:00:11.631Z,48.60
2017-01-24T06:01:11.710Z,48.70
2017-01-24T06:02:12.333Z,48.70
2017-01-24T06:03:12.995Z,48.80
2017-01-24T06:04:13.607Z,48.60
2017-01-24T06:05:11.683Z,48.60
2017-01-24T06:06:13.074Z,48.70
2017-01-24T06:07:12.066Z,48.70
2017-01-24T06:08:13.289Z,48.80
2017-01-24T06:09:15.260Z,48.70
2017-01-24T06:10:13.341Z,48.80
2017-01-24T06:11:12.958Z,48.80
2017-01-24T06:12:13.469Z,48.90
2017-01-24T06:13:12.113Z,48.80
2017-01-24T06:14:13.100Z,48.80
2017-01-24T06:15:13.707Z,48.80
2017-01-24T06:16:11.762Z,48.70
2017-01-24T06:17:11.889Z,48.80
2017-01-24T06:18:12.416Z,48.80
2017-01-24T06:19:12.176Z,48.80
2017-01-24T06:20:12.683Z,48.90
2017-01-24T06:21:12.407Z,48.80
2017-01-24T06:22:12.464Z,48.80
2017-01-24T06:23:11.601Z,48.70
2017-01-24T06:24:11.770Z,48.90
2017-01-24T06:25:11.975Z,48.80
2017-01-24T06:26:14.589Z,48.90
2017-01-24T06:27:11.704Z,49.40
2017-01-24T06:28:12.817Z,49.10
2017-01-24T06:29:11.706Z,49.20
2017-01-24T06:30:13.441Z,49.10
2017-01-24T06:31:11.565Z,49.00
2017-01-24T06:32:12.200Z,49.10
2017-01-24T06:33:13.095Z,49.00
2017-01-24T06:34:12.133Z,49.00
2017-01-24T06:35:12.219Z,49.40
2017-01-24T06:36:12.689Z,49.00
2017-01-24T06:37:11.891Z,49.10
2017-01-24T06:38:11.896Z,49.20
2017-01-24T06:39:11.852Z,49.10
2017-01-24T06:40:12.469Z,49.30
2017-01-24T06:41:12.105Z,49.60
2017-01-24T06:42:12.083Z,49.10
2017-01-24T06:43:12.513Z,49.20
2017-01-24T06:44:10.424Z,is
2017-01-24T06:45:13.157Z,49.10
2017-01-24T06:46:12.823Z,49.10
2017-01-24T06:47:11.966Z,49.10
2017-01-24T06:48:11.996Z,49.40
2017-01-24T06:49:13.719Z,49.50
2017-01-24T06:50:12.913Z,49.50
2017-01-24T06:51:16.878Z,49.40
2017-01-24T06:52:12.788Z,49.30
2017-01-24T06:53:12.491Z,49.20
2017-01-24T06:54:12.180Z,49.00
2017-01-24T06:55:12.333Z,48.60
2017-01-24T06:56:12.437Z,49.00
2017-01-24T06:57:11.564Z,48.70
2017-01-24T06:58:11.870Z,48.80
2017-01-24T06:59:12.511Z,48.80
2017-01-24T07:00:12.342Z,48.80
2017-01-24T07:01:14.098Z,49.20
2017-01-24T07:02:12.063Z,49.60
2017-01-24T07:03:12.641Z,49.50
2017-01-24T07:04:11.579Z,49.90
2017-01-24T07:05:11.860Z,49.80
2017-01-24T07:06:12.417Z,49.60
2017-01-24T07:07:12.545Z,48.40
2017-01-24T07:08:12.236Z,47.90
2017-01-24T07:09:12.771Z,48.00
2017-01-24T07:10:12.495Z,48.40
2017-01-24T07:11:12.040Z,48.70
2017-01-24T07:12:11.914Z,48.80
2017-01-24T07:13:12.015Z,48.80
2017-01-24T07:14:12.549Z,48.80
2017-01-24T07:15:11.702Z,48.80
2017-01-24T07:16:12.420Z,48.90
2017-01-24T07:17:11.759Z,48.80
2017-01-24T07:18:11.737Z,48.80
2017-01-24T07:19:12.579Z,48.80
2017-01-24T07:20:12.627Z,48.90
2017-01-24T07:21:08.928Z,is
2017-01-24T07:22:11.271Z,is
2017-01-24T07:23:11.511Z,48.80
2017-01-24T07:24:11.448Z,48.80
2017-01-24T07:25:11.581Z,48.80
2017-01-24T07:26:12.007Z,48.80
2017-01-24T07:27:12.191Z,49.00
2017-01-24T07:28:12.150Z,49.10
2017-01-24T07:29:13.109Z,49.10
2017-01-24T07:30:13.297Z,49.10
2017-01-24T07:31:12.808Z,49.20
2017-01-24T07:32:13.700Z,49.40
2017-01-24T07:33:11.617Z,49.60
2017-01-24T07:34:08.960Z,is
2017-01-24T07:35:11.788Z,50.40
2017-01-24T07:36:13.430Z,50.50
2017-01-24T07:37:11.856Z,50.40
2017-01-24T07:38:12.774Z,50.20
2017-01-24T07:39:12.224Z,50.20
2017-01-24T07:40:12.166Z,50.00
2017-01-24T07:41:12.209Z,49.70
2017-01-24T07:42:12.830Z,49.80
2017-01-24T07:43:12.509Z,50.00
2017-01-24T07:44:11.956Z,50.10
2017-01-24T07:45:11.977Z,50.30
2017-01-24T07:46:12.609Z,50.30
2017-01-24T07:47:11.664Z,50.00
2017-01-24T07:48:09.249Z,is
2017-01-24T07:49:12.581Z,49.80
2017-01-24T07:50:12.121Z,49.80
2017-01-24T07:51:12.120Z,49.70
2017-01-24T07:52:12.785Z,49.70
2017-01-24T07:53:10.752Z,is
2017-01-24T07:54:12.871Z,49.80
2017-01-24T07:55:12.460Z,49.90
2017-01-24T07:56:11.927Z,49.80
2017-01-24T07:57:11.870Z,49.90
2017-01-24T07:58:09.795Z,is
2017-01-24T07:59:12.779Z,49.80
2017-01-24T08:00:12.562Z,49.80
2017-01-24T08:01:10.589Z,is
2017-01-24T08:02:12.671Z,49.60
2017-01-24T08:03:09.205Z,is
2017-01-24T08:04:10.708Z,is
2017-01-24T08:05:11.998Z,48.80
2017-01-24T08:06:12.967Z,47.70
2017-01-24T08:07:11.824Z,48.60
2017-01-24T08:08:12.340Z,47.70
2017-01-24T08:09:12.963Z,47.50
2017-01-24T08:10:10.618Z,is
2017-01-24T08:11:12.058Z,48.00
2017-01-24T08:12:12.310Z,48.70
2017-01-24T08:13:12.341Z,48.90
2017-01-24T08:14:12.343Z,49.10
2017-01-24T08:15:11.286Z,is
2017-01-24T08:16:09.556Z,is
2017-01-24T08:17:12.126Z,49.70
2017-01-24T08:18:12.739Z,49.90
2017-01-24T08:19:12.374Z,49.90
2017-01-24T08:20:10.948Z,is
2017-01-24T08:21:12.697Z,49.80
2017-01-24T08:22:13.480Z,49.90
2017-01-24T08:23:11.580Z,49.80
2017-01-24T08:24:11.669Z,49.80
2017-01-24T08:25:12.301Z,49.80
2017-01-24T08:26:12.368Z,49.80
2017-01-24T08:27:13.908Z,50.30
2017-01-24T08:28:12.068Z,50.20
2017-01-24T08:29:12.580Z,50.20
2017-01-24T08:30:12.177Z,50.40
2017-01-24T08:31:10.727Z,is
2017-01-24T08:32:13.639Z,50.30
2017-01-24T08:33:11.893Z,50.00
2017-01-24T08:34:13.047Z,49.80
2017-01-24T08:35:13.594Z,49.80
2017-01-24T08:36:12.235Z,49.80
2017-01-24T08:37:12.526Z,49.80
2017-01-24T08:38:11.637Z,49.80
2017-01-24T08:39:12.645Z,47.70
2017-01-24T08:40:09.198Z,is
2017-01-24T08:41:12.989Z,40.80
2017-01-24T08:42:12.121Z,38.40
2017-01-24T08:43:12.186Z,37.90
2017-01-24T08:44:12.892Z,36.60
2017-01-24T08:45:12.666Z,34.70
2017-01-24T08:46:12.129Z,36.50
2017-01-24T08:47:12.980Z,36.50
2017-01-24T08:48:12.616Z,35.40
2017-01-24T08:49:11.791Z,35.50
2017-01-24T08:50:11.950Z,35.70
2017-01-24T08:51:12.424Z,37.00
2017-01-24T08:52:11.890Z,38.30
2017-01-24T08:53:11.879Z,39.70
2017-01-24T08:54:12.433Z,40.90
2017-01-24T08:55:11.545Z,41.70
2017-01-24T08:56:12.431Z,42.20
2017-01-24T08:57:11.319Z,42.60
2017-01-24T08:58:12.886Z,42.60
2017-01-24T08:59:12.595Z,43.50
2017-01-24T09:00:12.774Z,43.70
2017-01-24T09:01:11.812Z,44.00
2017-01-24T09:02:11.989Z,44.30
2017-01-24T09:03:12.515Z,44.40
2017-01-24T09:04:11.541Z,45.10
2017-01-24T09:05:12.354Z,45.00
2017-01-24T09:06:09.663Z,is
2017-01-24T09:07:10.573Z,is
2017-01-24T09:08:11.721Z,44.50
2017-01-24T09:09:11.747Z,44.60
2017-01-24T09:10:11.810Z,44.60
2017-01-24T09:11:11.838Z,44.80
2017-01-24T09:12:12.472Z,45.00
2017-01-24T09:13:11.907Z,44.90
2017-01-24T09:14:12.019Z,45.00
2017-01-24T09:15:11.922Z,45.00
2017-01-24T09:16:12.877Z,45.20
2017-01-24T09:17:12.093Z,45.10
2017-01-24T09:18:14.760Z,45.10
2017-01-24T09:19:12.496Z,45.20
2017-01-24T09:20:12.290Z,45.30
2017-01-24T09:21:12.939Z,45.30
2017-01-24T09:22:13.058Z,45.40
2017-01-24T09:23:12.881Z,45.30
2017-01-24T09:24:12.407Z,45.30
2017-01-24T09:25:12.904Z,45.40
2017-01-24T09:26:11.998Z,45.30
2017-01-24T09:27:12.099Z,45.40
2017-01-24T09:28:12.180Z,45.50
2017-01-24T09:29:12.066Z,45.40
2017-01-24T09:30:12.717Z,45.40
2017-01-24T09:31:12.369Z,45.60
2017-01-24T09:32:12.491Z,45.50
2017-01-24T09:33:11.577Z,45.50
2017-01-24T09:34:12.585Z,45.50
2017-01-24T09:35:11.943Z,45.60
2017-01-24T09:36:13.600Z,45.60
2017-01-24T09:37:13.151Z,45.60
2017-01-24T09:38:13.979Z,45.50
2017-01-24T09:39:14.132Z,44.20
2017-01-24T09:40:12.609Z,39.10
2017-01-24T09:41:09.136Z,is
2017-01-24T09:42:12.914Z,35.20
2017-01-24T09:43:12.581Z,27.20
2017-01-24T09:44:12.077Z,26.40
2017-01-24T09:45:13.909Z,26.70
2017-01-24T09:46:11.919Z,26.80
2017-01-24T09:47:12.080Z,27.00
2017-01-24T09:48:12.907Z,27.40
2017-01-24T09:49:12.767Z,27.60
2017-01-24T09:50:11.719Z,30.60
2017-01-24T09:51:12.196Z,32.90
2017-01-24T09:52:12.738Z,33.80
2017-01-24T09:53:10.443Z,is
2017-01-24T09:54:10.468Z,is
2017-01-24T09:55:12.300Z,34.90
2017-01-24T09:56:09.796Z,is
2017-01-24T09:57:12.638Z,35.40
2017-01-24T09:58:13.376Z,36.00
2017-01-24T09:59:12.117Z,36.00
2017-01-24T10:00:12.252Z,36.40
2017-01-24T10:01:12.294Z,36.70
2017-01-24T10:02:12.228Z,36.70
2017-01-24T10:03:10.479Z,is
2017-01-24T10:04:11.667Z,36.40
2017-01-24T10:05:11.756Z,36.20
2017-01-24T10:06:12.231Z,36.50
2017-01-24T10:07:12.257Z,36.70
2017-01-24T10:08:12.760Z,36.90
2017-01-24T10:09:12.345Z,36.80
2017-01-24T10:10:11.583Z,37.00
2017-01-24T10:11:12.615Z,37.40
2017-01-24T10:12:12.331Z,37.40
2017-01-24T10:13:12.330Z,37.40
2017-01-24T10:14:12.779Z,37.70
2017-01-24T10:15:12.878Z,37.80
2017-01-24T10:16:11.822Z,37.80
2017-01-24T10:17:12.570Z,37.90
2017-01-24T10:18:09.087Z,is
2017-01-24T10:19:13.860Z,38.20
2017-01-24T10:20:12.508Z,38.20
2017-01-24T10:21:11.687Z,38.20
2017-01-24T10:22:12.777Z,38.40
2017-01-24T10:23:11.777Z,38.30
2017-01-24T10:24:12.719Z,38.50
2017-01-24T10:25:11.915Z,38.40
2017-01-24T10:26:10.900Z,is
2017-01-24T10:27:11.778Z,38.80
2017-01-24T10:28:10.613Z,is
2017-01-24T10:29:12.370Z,38.70
2017-01-24T10:30:10.943Z,is
2017-01-24T10:31:12.890Z,39.00
2017-01-24T10:32:10.684Z,is
2017-01-24T10:33:10.990Z,is
2017-01-24T10:34:12.749Z,39.20
2017-01-24T10:35:12.326Z,39.40
2017-01-24T10:36:10.784Z,is
2017-01-24T10:37:12.395Z,39.40
2017-01-24T10:38:12.972Z,39.50
2017-01-24T10:39:11.904Z,39.60
2017-01-24T10:40:12.769Z,39.70
2017-01-24T10:41:13.357Z,37.30
2017-01-24T10:42:16.434Z,33.70
2017-01-24T10:43:12.310Z,31.80
2017-01-24T10:44:13.312Z,33.40
2017-01-24T10:45:12.440Z,35.70
2017-01-24T10:46:12.113Z,37.10
2017-01-24T10:47:12.132Z,37.30
2017-01-24T10:48:10.860Z,is
2017-01-24T10:49:12.364Z,38.60
2017-01-24T10:50:11.968Z,38.60
2017-01-24T10:51:12.372Z,38.70
2017-01-24T10:52:13.089Z,38.80
2017-01-24T10:53:12.031Z,39.00
2017-01-24T10:54:12.942Z,39.10
2017-01-24T10:55:12.750Z,38.40
2017-01-24T10:56:11.720Z,39.40
2017-01-24T10:57:11.699Z,39.50
2017-01-24T10:58:11.734Z,39.50
2017-01-24T10:59:13.388Z,39.70
2017-01-24T11:00:11.399Z,39.70
2017-01-24T11:01:13.024Z,39.80
2017-01-24T11:02:12.568Z,40.00
2017-01-24T11:03:11.592Z,40.00
2017-01-24T11:04:11.679Z,40.10
2017-01-24T11:05:11.834Z,40.20
2017-01-24T11:06:10.150Z,is
2017-01-24T11:07:12.121Z,40.30
2017-01-24T11:08:12.570Z,40.50
2017-01-24T11:09:11.703Z,40.80
2017-01-24T11:10:12.970Z,40.80
2017-01-24T11:11:10.528Z,is
2017-01-24T11:12:10.879Z,is
2017-01-24T11:13:12.425Z,41.00
2017-01-24T11:14:11.452Z,41.00
2017-01-24T11:15:11.641Z,41.10
2017-01-24T11:16:13.471Z,41.50
2017-01-24T11:17:10.442Z,is
2017-01-24T11:18:12.202Z,41.70
2017-01-24T11:19:12.930Z,41.70
2017-01-24T11:20:11.902Z,42.00
2017-01-24T11:21:13.550Z,42.20
2017-01-24T11:22:14.252Z,42.30
2017-01-24T11:23:12.872Z,42.50
2017-01-24T11:24:11.916Z,42.70
2017-01-24T11:25:12.001Z,42.80
2017-01-24T11:26:12.012Z,42.70
2017-01-24T11:27:12.646Z,42.80
2017-01-24T11:28:11.782Z,42.80
2017-01-24T11:29:11.915Z,42.70
2017-01-24T11:30:12.019Z,42.70
2017-01-24T11:31:12.052Z,42.70
2017-01-24T11:32:12.180Z,42.70
2017-01-24T11:33:12.829Z,42.80
2017-01-24T11:34:11.953Z,42.70
2017-01-24T11:35:12.031Z,42.80
2017-01-24T11:36:12.021Z,42.60
2017-01-24T11:37:10.019Z,is
2017-01-24T11:38:12.731Z,42.90
2017-01-24T11:39:13.032Z,43.10
2017-01-24T11:40:13.174Z,43.00
2017-01-24T11:41:14.092Z,42.90
2017-01-24T11:42:12.645Z,43.50
2017-01-24T11:43:11.911Z,43.20
2017-01-24T11:44:12.271Z,43.50
2017-01-24T11:45:12.791Z,43.20
2017-01-24T11:46:12.481Z,43.20
2017-01-24T11:47:12.070Z,43.30
2017-01-24T11:48:12.533Z,42.80
2017-01-24T11:49:13.273Z,42.80
2017-01-24T11:50:10.474Z,is
2017-01-24T11:51:11.505Z,42.80
2017-01-24T11:52:11.980Z,43.00
2017-01-24T11:53:12.417Z,43.10
2017-01-24T11:54:09.942Z,is
2017-01-24T11:55:12.359Z,43.00
2017-01-24T11:56:12.361Z,42.90
2017-01-24T11:57:12.174Z,43.00
2017-01-24T11:58:12.911Z,43.50
2017-01-24T11:59:11.972Z,43.20
2017-01-24T12:00:12.041Z,43.10
2017-01-24T12:01:12.692Z,43.30
2017-01-24T12:02:12.163Z,43.10
2017-01-24T12:03:12.221Z,43.40
2017-01-24T12:04:12.660Z,43.50
2017-01-24T12:05:11.708Z,43.40
2017-01-24T12:06:13.177Z,43.40
2017-01-24T12:07:13.941Z,43.50
2017-01-24T12:08:12.512Z,43.40
2017-01-24T12:09:11.551Z,43.70
2017-01-24T12:10:11.600Z,43.40
2017-01-24T12:11:11.789Z,43.50
2017-01-24T12:12:12.522Z,43.40
2017-01-24T12:13:12.188Z,43.60
2017-01-24T12:14:13.706Z,43.60
2017-01-24T12:15:11.737Z,43.70
2017-01-24T12:16:10.348Z,is
2017-01-24T12:17:12.084Z,43.50
2017-01-24T12:18:13.712Z,43.80
2017-01-24T12:19:11.682Z,43.70
2017-01-24T12:20:12.208Z,43.80
2017-01-24T12:21:12.692Z,43.60
2017-01-24T12:22:13.419Z,43.90
2017-01-24T12:23:11.390Z,43.90
2017-01-24T12:24:12.871Z,43.90
2017-01-24T12:25:11.939Z,43.80
2017-01-24T12:26:12.020Z,43.80
2017-01-24T12:27:10.534Z,is
2017-01-24T12:28:12.675Z,43.90
2017-01-24T12:29:12.320Z,43.90
2017-01-24T12:30:12.011Z,44.00
2017-01-24T12:31:13.582Z,44.00
2017-01-24T12:32:12.166Z,43.90
2017-01-24T12:33:12.310Z,44.00
2017-01-24T12:34:13.875Z,43.70
2017-01-24T12:35:10.910Z,is
2017-01-24T12:36:13.140Z,44.00
2017-01-24T12:37:11.527Z,44.00
2017-01-24T12:38:10.379Z,is
2017-01-24T12:39:09.093Z,is
2017-01-24T12:40:12.562Z,44.00
2017-01-24T12:41:11.543Z,44.10
2017-01-24T12:42:11.652Z,44.00
2017-01-24T12:43:11.830Z,44.10
2017-01-24T12:44:12.075Z,44.10
2017-01-24T12:45:12.126Z,44.00
2017-01-24T12:46:17.255Z,44.10
2017-01-24T12:47:12.287Z,44.20
2017-01-24T12:48:12.299Z,44.10
2017-01-24T12:49:12.449Z,44.10
2017-01-24T12:50:09.552Z,is
2017-01-24T12:51:11.965Z,44.10
2017-01-24T12:52:13.594Z,44.20
2017-01-24T12:53:12.115Z,44.10
2017-01-24T12:54:12.219Z,44.10
2017-01-24T12:55:12.940Z,44.30
2017-01-24T12:56:12.034Z,44.30
2017-01-24T12:57:12.078Z,44.20
2017-01-24T12:58:11.279Z,is
2017-01-24T12:59:13.042Z,44.10
2017-01-24T13:00:12.711Z,44.20